Welcome to Northern Hawkes Bay. New Zealand.
PWS Header
      nz Flag



Hit Counter


W3C Valid W3C Valid logo


    Wairoa

Select any of the Stations below to visit their websites.










Historic Data from Weather Underground
Select the location of interest below. Wairoa is the default. Please have patience, this Data is slow to load in.
Northern Hawkes Bay Historical Data
Daily Summary for August 29, 2017 Units:  Metric    English   Both
« Previous Day
Next Day »
Daily Weekly Monthly Yearly Custom
  High: Low: Average:
Temperature: 21.7 °C 10.1 °C 14.5 °C
Dew Point: 14.8 °C 9.0 °C 11.6 °C
Humidity: 99% 50% 85%
Wind Speed: 9.7km/h 0.0km/h 3.5km/h
Wind Gust: 15.8km/h - -
Wind- - SW
Pressure: 1016.1 hPa 1013.1 hPa -
Precipitation: 2.8 mm    
Historical Graphs
 
 
Tabular Data for August 29, 2017
Time Temperature Dew Point Pressure Wind Wind Speed Wind Gust Humidity Rainfall Rate (Hourly) solar
00:03 13.4 °C 13.3 °C 1014.4 hPa Calm   3.5 km/h 99% 1.3 mm 0 W/m2
00:21 13.4 °C 13.3 °C 1014.8 hPa WNW 5.0 km/h 12.2 km/h 99% 1.3 mm 0 W/m2
00:26 13.3 °C 13.2 °C 1014.8 hPa WNW 6.1 km/h 12.2 km/h 99% 1.5 mm 0 W/m2
00:31 13.1 °C 12.9 °C 1015.1 hPa WNW 6.1 km/h 12.2 km/h 99% 1.5 mm 0 W/m2
00:36 13.0 °C 12.8 °C 1015.1 hPa NW 3.5 km/h 12.2 km/h 99% 1.8 mm 0 W/m2
00:41 13.0 °C 12.8 °C 1015.1 hPa NNW 2.6 km/h 9.7 km/h 99% 1.8 mm 0 W/m2
00:46 12.9 °C 12.4 °C 1015.5 hPa North 5.0 km/h 8.7 km/h 97% 1.8 mm 0 W/m2
00:51 12.9 °C 12.4 °C 1015.1 hPa North 2.6 km/h 8.7 km/h 97% 1.8 mm 0 W/m2
00:56 12.8 °C 12.3 °C 1015.1 hPa North 2.6 km/h 7.2 km/h 97% 2.0 mm 0 W/m2
01:01 12.7 °C 12.2 °C 1015.1 hPa North 1.1 km/h 7.2 km/h 97% 2.0 mm 0 W/m2
01:06 12.6 °C 12.2 °C 1015.1 hPa NNE 1.1 km/h 7.2 km/h 97% 2.0 mm 0 W/m2
01:11 12.6 °C 12.2 °C 1014.8 hPa NNE 2.6 km/h 5.0 km/h 97% 2.0 mm 0 W/m2
01:16 12.5 °C 12.1 °C 1014.8 hPa NE 1.1 km/h 3.5 km/h 97% 2.0 mm 0 W/m2
01:21 12.5 °C 12.1 °C 1014.8 hPa ENE 3.5 km/h 5.0 km/h 97% 1.8 mm 0 W/m2
01:26 12.5 °C 12.1 °C 1014.8 hPa ENE 5.0 km/h 7.2 km/h 97% 1.3 mm 0 W/m2
01:31 12.5 °C 12.1 °C 1014.8 hPa ENE 6.1 km/h 7.2 km/h 97% 1.3 mm 0 W/m2
01:36 12.4 °C 11.9 °C 1014.4 hPa ENE 5.0 km/h 8.7 km/h 97% 1.0 mm 0 W/m2
01:41 12.4 °C 11.9 °C 1014.8 hPa NE 5.0 km/h 8.7 km/h 97% 1.0 mm 0 W/m2
01:46 12.4 °C 11.9 °C 1014.8 hPa NNE 5.0 km/h 8.7 km/h 97% 0.5 mm 0 W/m2
01:51 12.4 °C 11.9 °C 1014.4 hPa NNE 3.5 km/h 7.2 km/h 97% 0.5 mm 0 W/m2
01:56 12.4 °C 11.9 °C 1014.4 hPa NE 3.5 km/h 7.2 km/h 97% 0.3 mm 0 W/m2
02:01 12.4 °C 11.9 °C 1014.4 hPa NE 2.6 km/h 6.1 km/h 97% 0.3 mm 0 W/m2
02:06 12.3 °C 11.8 °C 1014.4 hPa NE 3.5 km/h 6.1 km/h 97% 0.3 mm 0 W/m2
02:11 12.3 °C 11.8 °C 1014.4 hPa Calm   5.0 km/h 97% 0.3 mm 0 W/m2
02:16 12.3 °C 11.8 °C 1014.1 hPa NNE 2.6 km/h 5.0 km/h 97% 0.3 mm 0 W/m2
02:21 12.3 °C 11.8 °C 1014.1 hPa North 1.1 km/h 5.0 km/h 97% 0.0 mm 0 W/m2
02:26 12.3 °C 11.8 °C 1014.1 hPa WNW 1.1 km/h 5.0 km/h 97% 0.0 mm 0 W/m2
02:31 12.2 °C 11.7 °C 1014.1 hPa West 1.1 km/h 3.5 km/h 97% 0.0 mm 0 W/m2
02:36 12.2 °C 11.7 °C 1014.4 hPa WNW 1.1 km/h 3.5 km/h 97% 0.0 mm 0 W/m2
02:41 12.2 °C 11.7 °C 1014.1 hPa WNW 1.1 km/h 5.0 km/h 97% 0.0 mm 0 W/m2
02:46 12.1 °C 11.7 °C 1014.1 hPa Calm   5.0 km/h 97% 0.0 mm 0 W/m2
02:51 12.0 °C 11.6 °C 1014.1 hPa Calm   2.6 km/h 97% 0.0 mm 0 W/m2
02:56 12.0 °C 11.6 °C 1014.1 hPa Calm   1.1 km/h 97% 0.0 mm 0 W/m2
03:01 12.0 °C 11.6 °C 1013.8 hPa ESE 1.1 km/h 2.6 km/h 97% 0.0 mm 0 W/m2
03:06 11.9 °C 11.6 °C 1013.8 hPa ESE 1.1 km/h 3.5 km/h 98% 0.0 mm 0 W/m2
03:11 11.9 °C 11.6 °C 1013.8 hPa East 2.6 km/h 3.5 km/h 98% 0.0 mm 0 W/m2
03:16 11.9 °C 11.6 °C 1013.8 hPa East 2.6 km/h 3.5 km/h 98% 0.0 mm 0 W/m2
03:21 11.9 °C 11.6 °C 1013.8 hPa East 1.1 km/h 3.5 km/h 98% 0.0 mm 0 W/m2
03:26 12.0 °C 11.6 °C 1013.8 hPa Calm   3.5 km/h 97% 0.0 mm 0 W/m2
03:31 12.0 °C 11.6 °C 1014.1 hPa Calm   3.5 km/h 97% 0.0 mm 0 W/m2
03:36 11.9 °C 11.6 °C 1014.1 hPa Calm   1.1 km/h 98% 0.0 mm 0 W/m2
03:41 11.9 °C 11.6 °C 1013.8 hPa Calm     98% 0.0 mm 0 W/m2
03:46 11.9 °C 11.6 °C 1013.8 hPa Calm   2.6 km/h 98% 0.0 mm 0 W/m2
03:51 11.8 °C 11.5 °C 1013.8 hPa NNW 1.1 km/h 2.6 km/h 98% 0.0 mm 0 W/m2
03:56 11.8 °C 11.5 °C 1013.8 hPa NNW 1.1 km/h 2.6 km/h 98% 0.0 mm 0 W/m2
04:01 11.8 °C 11.5 °C 1013.8 hPa Calm   2.6 km/h 98% 0.0 mm 0 W/m2
04:06 11.7 °C 11.4 °C 1013.8 hPa NW 1.1 km/h 3.5 km/h 98% 0.0 mm 0 W/m2
04:11 11.7 °C 11.4 °C 1013.4 hPa North 2.6 km/h 3.5 km/h 98% 0.0 mm 0 W/m2
04:16 11.7 °C 11.4 °C 1013.4 hPa NNW 2.6 km/h 5.0 km/h 98% 0.0 mm 0 W/m2
04:21 11.7 °C 11.4 °C 1013.4 hPa NNW 1.1 km/h 5.0 km/h 98% 0.0 mm 0 W/m2
04:26 11.6 °C 11.3 °C 1013.4 hPa North 2.6 km/h 5.0 km/h 98% 0.0 mm 0 W/m2
04:31 11.6 °C 11.3 °C 1013.4 hPa North 2.6 km/h 5.0 km/h 98% 0.0 mm 0 W/m2
04:36 11.6 °C 11.3 °C 1013.4 hPa North 2.6 km/h 5.0 km/h 98% 0.0 mm 0 W/m2
04:41 11.6 °C 11.3 °C 1013.4 hPa North 2.6 km/h 3.5 km/h 98% 0.0 mm 0 W/m2
04:46 11.6 °C 11.3 °C 1013.4 hPa North 3.5 km/h 6.1 km/h 98% 0.0 mm 0 W/m2
04:51 11.5 °C 11.2 °C 1013.4 hPa North 3.5 km/h 6.1 km/h 98% 0.0 mm 0 W/m2
04:56 11.5 °C 11.2 °C 1013.4 hPa North 3.5 km/h 6.1 km/h 98% 0.0 mm 0 W/m2
05:01 11.5 °C 11.2 °C 1013.4 hPa North 5.0 km/h 7.2 km/h 98% 0.0 mm 0 W/m2
05:06 11.5 °C 11.2 °C 1013.4 hPa North 3.5 km/h 7.2 km/h 98% 0.0 mm 0 W/m2
05:11 11.5 °C 11.2 °C 1013.4 hPa NNW 3.5 km/h 8.7 km/h 98% 0.0 mm 0 W/m2
05:16 11.6 °C 11.3 °C 1013.4 hPa NNW 5.0 km/h 8.7 km/h 98% 0.0 mm 0 W/m2
05:21 11.6 °C 11.3 °C 1013.4 hPa NNW 3.5 km/h 7.2 km/h 98% 0.0 mm 0 W/m2
05:26 11.6 °C 11.3 °C 1013.4 hPa NW 3.5 km/h 7.2 km/h 98% 0.0 mm 0 W/m2
05:31 11.6 °C 11.3 °C 1013.4 hPa NNW 3.5 km/h 7.2 km/h 98% 0.0 mm 0 W/m2
05:36 11.6 °C 11.3 °C 1013.8 hPa NNW 6.1 km/h 8.7 km/h 98% 0.0 mm 0 W/m2
05:41 11.6 °C 11.3 °C 1013.4 hPa North 3.5 km/h 8.7 km/h 98% 0.0 mm 0 W/m2
05:46 11.5 °C 11.2 °C 1013.4 hPa North 3.5 km/h 8.7 km/h 98% 0.0 mm 0 W/m2
05:51 11.5 °C 11.2 °C 1013.4 hPa North 3.5 km/h 7.2 km/h 98% 0.0 mm 0 W/m2
05:56 11.4 °C 11.1 °C 1013.4 hPa North 1.1 km/h 7.2 km/h 98% 0.0 mm 0 W/m2
06:01 11.4 °C 11.1 °C 1013.8 hPa NNW 1.1 km/h 6.1 km/h 98% 0.0 mm 0 W/m2
06:06 11.2 °C 10.9 °C 1013.4 hPa NNW 2.6 km/h 3.5 km/h 98% 0.0 mm 0 W/m2
06:11 11.1 °C 10.8 °C 1013.4 hPa NNE 2.6 km/h 5.0 km/h 98% 0.0 mm 0 W/m2
06:16 11.1 °C 10.8 °C 1013.4 hPa NNE 5.0 km/h 7.2 km/h 98% 0.0 mm 0 W/m2
06:21 11.1 °C 10.8 °C 1013.8 hPa NNE 5.0 km/h 8.7 km/h 98% 0.0 mm 0 W/m2
06:26 11.1 °C 10.8 °C 1013.8 hPa North 3.5 km/h 8.7 km/h 98% 0.0 mm 0 W/m2
06:31 11.1 °C 10.8 °C 1013.8 hPa NNW 3.5 km/h 7.2 km/h 98% 0.0 mm 0 W/m2
06:36 11.1 °C 10.8 °C 1013.8 hPa NNW 5.0 km/h 8.7 km/h 98% 0.0 mm 0 W/m2
06:41 11.1 °C 10.8 °C 1013.8 hPa NNW 3.5 km/h 8.7 km/h 98% 0.0 mm 0 W/m2
06:46 11.1 °C 10.8 °C 1013.8 hPa North 5.0 km/h 8.7 km/h 98% 0.0 mm 2 W/m2
06:51 11.1 °C 10.8 °C 1014.1 hPa North 3.5 km/h 8.7 km/h 98% 0.0 mm 4 W/m2
06:56 11.1 °C 10.8 °C 1014.1 hPa NNW 5.0 km/h 9.7 km/h 98% 0.0 mm 8 W/m2
07:01 11.1 °C 10.8 °C 1014.1 hPa NNW 3.5 km/h 9.7 km/h 98% 0.0 mm 12 W/m2
07:06 10.9 °C 10.8 °C 1014.1 hPa NNW 6.1 km/h 8.7 km/h 99% 0.0 mm 40 W/m2
07:11 11.1 °C 10.8 °C 1014.1 hPa NW 5.0 km/h 8.7 km/h 98% 0.0 mm 59 W/m2
07:16 11.2 °C 10.9 °C 1014.1 hPa NW 3.5 km/h 7.2 km/h 98% 0.0 mm 86 W/m2
07:21 11.3 °C 11.0 °C 1014.1 hPa NW 7.2 km/h 8.7 km/h 98% 0.0 mm 101 W/m2
07:26 11.5 °C 11.2 °C 1014.1 hPa NNW 7.2 km/h 9.7 km/h 98% 0.3 mm 114 W/m2
07:31 11.9 °C 11.6 °C 1014.1 hPa NNW 7.2 km/h 9.7 km/h 98% 0.3 mm 128 W/m2
07:36 12.2 °C 11.7 °C 1014.1 hPa NW 6.1 km/h 12.2 km/h 97% 0.3 mm 80 W/m2
07:41 12.2 °C 11.7 °C 1014.4 hPa NNW 5.0 km/h 12.2 km/h 97% 0.3 mm 143 W/m2
07:46 12.1 °C 11.7 °C 1014.4 hPa NNW 6.1 km/h 11.1 km/h 97% 0.3 mm 149 W/m2
07:51 12.4 °C 11.9 °C 1014.4 hPa NNW 6.1 km/h 11.1 km/h 97% 0.3 mm 183 W/m2
07:56 12.6 °C 12.2 °C 1014.4 hPa North 3.5 km/h 12.2 km/h 97% 0.3 mm 110 W/m2
08:01 12.6 °C 12.2 °C 1014.4 hPa North 7.2 km/h 15.8 km/h 97% 0.3 mm 173 W/m2
08:06 12.4 °C 11.9 °C 1014.4 hPa North 2.6 km/h 15.8 km/h 97% 0.3 mm 133 W/m2
08:11 12.7 °C 12.2 °C 1014.4 hPa NNW 6.1 km/h 13.4 km/h 97% 0.3 mm 175 W/m2
08:14 12.9 °C 12.4 °C 1014.4 hPa NNW 2.6 km/h 9.7 km/h 97% 0.3 mm 191 W/m2
08:19 13.3 °C 13.2 °C 1014.8 hPa NNW 2.6 km/h 9.7 km/h 99% 0.3 mm 225 W/m2
08:24 13.5 °C 13.3 °C 1014.8 hPa NNW 7.2 km/h 12.2 km/h 99% 0.3 mm 238 W/m2
08:29 13.5 °C 13.2 °C 1014.4 hPa NNW 3.5 km/h 12.2 km/h 98% 0.0 mm 248 W/m2
08:34 14.1 °C 13.3 °C 1014.8 hPa NNW 6.1 km/h 11.1 km/h 95% 0.0 mm 259 W/m2
08:39 14.3 °C 13.3 °C 1014.8 hPa North 6.1 km/h 11.1 km/h 94% 0.0 mm 267 W/m2
08:44 14.5 °C 13.4 °C 1014.8 hPa North 7.2 km/h 11.1 km/h 93% 0.0 mm 275 W/m2
08:49 14.6 °C 13.2 °C 1014.8 hPa North 9.7 km/h 12.2 km/h 91% 0.0 mm 282 W/m2
08:54 15.0 °C 13.4 °C 1014.8 hPa North 5.0 km/h 12.2 km/h 90% 0.0 mm 289 W/m2
08:59 15.4 °C 13.6 °C 1014.8 hPa NNW 5.0 km/h 12.2 km/h 89% 0.0 mm 297 W/m2
09:04 15.6 °C 13.6 °C 1015.1 hPa NNW 5.0 km/h 9.7 km/h 88% 0.0 mm 303 W/m2
09:09 15.9 °C 13.7 °C 1015.1 hPa NW 6.1 km/h 9.7 km/h 87% 0.0 mm 308 W/m2
09:14 16.0 °C 13.3 °C 1014.8 hPa NW 6.1 km/h 11.1 km/h 84% 0.0 mm 311 W/m2
09:19 16.2 °C 13.5 °C 1015.1 hPa NNW 6.1 km/h 11.1 km/h 84% 0.0 mm 313 W/m2
09:24 16.5 °C 13.6 °C 1014.8 hPa NNW 3.5 km/h 9.7 km/h 83% 0.0 mm 316 W/m2
09:29 16.4 °C 13.1 °C 1014.8 hPa NNW 5.0 km/h 9.7 km/h 81% 0.0 mm 314 W/m2
09:34 16.6 °C 13.3 °C 1014.8 hPa NNW 6.1 km/h 9.7 km/h 81% 0.0 mm 307 W/m2
09:39 16.6 °C 13.2 °C 1014.8 hPa NNW 5.0 km/h 8.7 km/h 80% 0.0 mm 161 W/m2
09:44 16.8 °C 13.2 °C 1014.8 hPa NNW 1.1 km/h 9.7 km/h 79% 0.0 mm 74 W/m2
09:49 17.6 °C 13.6 °C 1015.1 hPa NNW 3.5 km/h 9.7 km/h 77% 0.0 mm 63 W/m2
09:54 17.8 °C 13.3 °C 1014.8 hPa NNW 3.5 km/h 7.2 km/h 75% 0.0 mm 58 W/m2
09:59 18.1 °C 13.6 °C 1014.8 hPa NNW 1.1 km/h 7.2 km/h 75% 0.0 mm 53 W/m2
10:04 18.4 °C 13.5 °C 1014.8 hPa WNW 6.1 km/h 8.7 km/h 73% 0.0 mm 53 W/m2
10:09 17.8 °C 12.5 °C 1014.8 hPa SSW 3.5 km/h 11.1 km/h 71% 0.0 mm 51 W/m2
10:14 17.4 °C 12.3 °C 1014.8 hPa SSW 6.1 km/h 11.1 km/h 72% 0.0 mm 51 W/m2
10:19 17.5 °C 12.8 °C 1014.8 hPa SSW 9.7 km/h 11.1 km/h 74% 0.0 mm 51 W/m2
10:24 16.9 °C 12.7 °C 1014.8 hPa SSW 5.0 km/h 11.1 km/h 76% 0.0 mm 53 W/m2
10:29 17.5 °C 13.6 °C 1014.8 hPa SSW 5.0 km/h 11.1 km/h 78% 0.0 mm 58 W/m2
10:34 18.1 °C 13.8 °C 1014.8 hPa South 5.0 km/h 7.2 km/h 76% 0.0 mm 57 W/m2
10:39 17.7 °C 13.0 °C 1014.8 hPa SSE 3.5 km/h 9.7 km/h 74% 0.0 mm 186 W/m2
10:44 17.8 °C 13.1 °C 1014.8 hPa SSE 8.7 km/h 12.2 km/h 74% 0.0 mm 56 W/m2
10:49 17.0 °C 12.3 °C 1014.8 hPa SSE 5.0 km/h 12.2 km/h 74% 0.0 mm 276 W/m2
11:05 17.3 °C 13.4 °C 1014.8 hPa South 2.6 km/h 9.7 km/h 78% 0.0 mm 234 W/m2
11:10 17.7 °C 13.6 °C 1014.8 hPa SSE 2.6 km/h 8.7 km/h 77% 0.0 mm 87 W/m2
11:15 17.6 °C 13.3 °C 1014.8 hPa SSE 2.6 km/h 8.7 km/h 76% 0.0 mm 71 W/m2
11:20 17.3 °C 13.2 °C 1014.8 hPa SSE 2.6 km/h 8.7 km/h 77% 0.0 mm 60 W/m2
11:25 17.4 °C 13.6 °C 1014.8 hPa South 5.0 km/h 8.7 km/h 78% 0.0 mm 400 W/m2
11:30 17.5 °C 13.6 °C 1014.8 hPa South 5.0 km/h 9.7 km/h 78% 0.0 mm 405 W/m2
11:35 18.0 °C 14.1 °C 1014.8 hPa South 6.1 km/h 9.7 km/h 78% 0.0 mm 409 W/m2
11:40 17.8 °C 13.5 °C 1014.4 hPa South 6.1 km/h 9.7 km/h 76% 0.0 mm 412 W/m2
11:45 18.1 °C 14.0 °C 1014.8 hPa SSE 8.7 km/h 9.7 km/h 77% 0.0 mm 413 W/m2
11:50 17.0 °C 12.6 °C 1014.4 hPa SSE 8.7 km/h 12.2 km/h 75% 0.0 mm 412 W/m2
11:55 16.9 °C 13.1 °C 1014.4 hPa SSE 8.7 km/h 12.2 km/h 78% 0.0 mm 413 W/m2
12:00 16.9 °C 13.2 °C 1014.4 hPa South 7.2 km/h 12.2 km/h 79% 0.0 mm 413 W/m2
12:06 16.9 °C 13.1 °C 1014.4 hPa South 6.1 km/h 11.1 km/h 78% 0.0 mm 412 W/m2
12:11 17.4 °C 13.3 °C 1014.4 hPa South 6.1 km/h 11.1 km/h 77% 0.0 mm 413 W/m2
12:16 17.6 °C 13.1 °C 1014.1 hPa South 5.0 km/h 9.7 km/h 75% 0.0 mm 414 W/m2
12:21 17.7 °C 13.4 °C 1014.1 hPa South 5.0 km/h 9.7 km/h 76% 0.0 mm 414 W/m2
12:26 18.1 °C 13.8 °C 1014.1 hPa South 7.2 km/h 9.7 km/h 76% 0.0 mm 414 W/m2
12:31 18.1 °C 13.8 °C 1014.1 hPa South 3.5 km/h 11.1 km/h 76% 0.0 mm 410 W/m2
12:36 18.6 °C 14.1 °C 1014.1 hPa South 6.1 km/h 11.1 km/h 75% 0.0 mm 411 W/m2
12:41 19.0 °C 14.3 °C 1013.8 hPa South 6.1 km/h 9.7 km/h 74% 0.0 mm 410 W/m2
12:46 19.5 °C 14.8 °C 1013.8 hPa South 3.5 km/h 9.7 km/h 74% 0.0 mm 410 W/m2
12:51 20.2 °C 14.8 °C 1013.8 hPa SSE 2.6 km/h 9.7 km/h 71% 0.0 mm 409 W/m2
12:56 20.3 °C 14.2 °C 1013.8 hPa Calm   7.2 km/h 68% 0.0 mm 407 W/m2
13:01 21.0 °C 14.2 °C 1013.8 hPa SE 3.5 km/h 7.2 km/h 65% 0.0 mm 420 W/m2
13:06 20.9 °C 14.1 °C 1013.8 hPa SSE 3.5 km/h 8.7 km/h 65% 0.0 mm 403 W/m2
13:11 20.8 °C 14.0 °C 1013.4 hPa South 2.6 km/h 8.7 km/h 65% 0.0 mm 296 W/m2
13:16 21.3 °C 13.2 °C 1013.4 hPa SSE 2.6 km/h 8.7 km/h 60% 0.0 mm 391 W/m2
13:21 21.4 °C 13.6 °C 1013.4 hPa SSE 6.1 km/h 9.7 km/h 61% 0.0 mm 145 W/m2
13:26 20.6 °C 13.3 °C 1013.4 hPa South 7.2 km/h 13.4 km/h 63% 0.0 mm 265 W/m2
13:31 20.0 °C 12.8 °C 1013.1 hPa South 5.0 km/h 13.4 km/h 63% 0.0 mm 341 W/m2
13:36 20.1 °C 12.6 °C 1013.1 hPa South 7.2 km/h 12.2 km/h 62% 0.0 mm 284 W/m2
13:41 20.0 °C 13.2 °C 1013.1 hPa South 6.1 km/h 11.1 km/h 65% 0.0 mm 64 W/m2
13:46 19.1 °C 13.9 °C 1013.4 hPa SSE 5.0 km/h 11.1 km/h 72% 0.0 mm 356 W/m2
13:51 19.4 °C 14.4 °C 1013.1 hPa South 8.7 km/h 11.1 km/h 73% 0.0 mm 346 W/m2
13:56 19.9 °C 14.5 °C 1013.1 hPa South 5.0 km/h 11.1 km/h 71% 0.0 mm 198 W/m2
14:01 20.1 °C 13.8 °C 1013.1 hPa South 8.7 km/h 12.2 km/h 67% 0.0 mm 249 W/m2
14:06 19.0 °C 14.1 °C 1013.4 hPa South 7.2 km/h 12.2 km/h 73% 0.0 mm 300 W/m2
14:11 18.8 °C 14.3 °C 1013.1 hPa SSE 3.5 km/h 12.2 km/h 75% 0.0 mm 140 W/m2
14:16 19.5 °C 14.6 °C 1013.4 hPa South 2.6 km/h 12.2 km/h 73% 0.0 mm 286 W/m2
14:21 20.3 °C 14.0 °C 1013.4 hPa SSE 5.0 km/h 9.7 km/h 67% 0.0 mm 215 W/m2
14:26 20.6 °C 13.3 °C 1013.4 hPa SSE 5.0 km/h 9.7 km/h 63% 0.0 mm 154 W/m2
14:30 20.5 °C 12.2 °C 1013.4 hPa SSE 6.1 km/h 12.2 km/h 59% 0.0 mm 76 W/m2
14:35 21.1 °C 12.3 °C 1013.4 hPa SSE 6.1 km/h 12.2 km/h 57% 0.0 mm 69 W/m2
14:40 21.1 °C 12.0 °C 1013.4 hPa SE 5.0 km/h 11.1 km/h 56% 0.0 mm 66 W/m2
14:45 21.1 °C 12.3 °C 1013.4 hPa SE 5.0 km/h 13.4 km/h 57% 0.0 mm 56 W/m2
14:50 21.3 °C 13.0 °C 1013.4 hPa SE 2.6 km/h 13.4 km/h 59% 0.0 mm 55 W/m2
14:55 21.0 °C 12.7 °C 1013.4 hPa SE 5.0 km/h 11.1 km/h 59% 0.0 mm 55 W/m2
15:00 20.3 °C 12.1 °C 1013.4 hPa SE 5.0 km/h 11.1 km/h 59% 0.0 mm 58 W/m2
15:05 20.3 °C 12.6 °C 1013.4 hPa SE 7.2 km/h 12.2 km/h 61% 0.0 mm 84 W/m2
15:10 20.3 °C 11.8 °C 1013.4 hPa SSE 3.5 km/h 12.2 km/h 58% 0.0 mm 180 W/m2
15:19 20.3 °C 11.8 °C 1013.4 hPa SE 7.2 km/h 14.8 km/h 58% 0.0 mm 226 W/m2
15:25 19.7 °C 11.5 °C 1013.1 hPa ESE 6.1 km/h 14.8 km/h 59% 0.0 mm 216 W/m2
15:29 19.6 °C 11.4 °C 1013.4 hPa ESE 5.0 km/h 14.8 km/h 59% 0.0 mm 208 W/m2
15:32 20.0 °C 11.5 °C 1013.4 hPa ESE 5.0 km/h 12.2 km/h 58% 0.0 mm 202 W/m2
15:37 20.2 °C 11.7 °C 1013.4 hPa ESE 3.5 km/h 9.7 km/h 58% 0.0 mm 191 W/m2
15:40 20.3 °C 11.5 °C 1013.4 hPa SE 3.5 km/h 11.1 km/h 57% 0.0 mm 186 W/m2
15:56 21.6 °C 12.2 °C 1013.4 hPa Calm   5.0 km/h 55% 0.0 mm 153 W/m2
15:57 21.7 °C 12.3 °C 1013.4 hPa ESE 1.1 km/h 5.0 km/h 55% 0.0 mm 150 W/m2
16:02 21.7 °C 11.7 °C 1013.4 hPa SE 3.5 km/h 7.2 km/h 53% 0.0 mm 140 W/m2
16:07 21.4 °C 11.4 °C 1013.4 hPa SE 2.6 km/h 7.2 km/h 53% 0.0 mm 129 W/m2
16:12 20.8 °C 10.6 °C 1013.8 hPa ESE 3.5 km/h 11.1 km/h 52% 0.0 mm 118 W/m2
16:17 20.3 °C 10.7 °C 1013.8 hPa East 1.1 km/h 11.1 km/h 54% 0.0 mm 107 W/m2
16:22 20.3 °C 10.4 °C 1014.1 hPa East 3.5 km/h 8.7 km/h 53% 0.0 mm 99 W/m2
16:23 20.3 °C 10.7 °C 1014.1 hPa ESE 2.6 km/h 8.7 km/h 54% 0.0 mm 97 W/m2
16:28 20.0 °C 10.4 °C 1014.1 hPa ESE 8.7 km/h 9.7 km/h 54% 0.0 mm 90 W/m2
16:33 19.6 °C 10.6 °C 1014.1 hPa ESE 6.1 km/h 9.7 km/h 56% 0.0 mm 82 W/m2
16:38 20.2 °C 11.2 °C 1014.4 hPa ESE 1.1 km/h 9.7 km/h 56% 0.0 mm 74 W/m2
16:43 20.3 °C 10.7 °C 1014.4 hPa ESE 2.6 km/h 8.7 km/h 54% 0.0 mm 65 W/m2
16:48 20.6 °C 11.0 °C 1014.4 hPa Calm   8.7 km/h 54% 0.0 mm 56 W/m2
16:53 21.4 °C 11.2 °C 1014.4 hPa Calm   5.0 km/h 52% 0.0 mm 49 W/m2
16:58 21.2 °C 10.4 °C 1014.8 hPa ENE 1.1 km/h 6.1 km/h 50% 0.0 mm 42 W/m2
17:03 20.6 °C 10.7 °C 1014.8 hPa Calm   6.1 km/h 53% 0.0 mm 37 W/m2
17:08 20.7 °C 11.1 °C 1014.8 hPa Calm   5.0 km/h 54% 0.0 mm 31 W/m2
17:13 20.3 °C 10.4 °C 1014.8 hPa East 2.6 km/h 6.1 km/h 53% 0.0 mm 27 W/m2
17:18 19.6 °C 10.6 °C 1014.8 hPa ENE 2.6 km/h 6.1 km/h 56% 0.0 mm 23 W/m2
17:23 19.0 °C 10.3 °C 1014.8 hPa Calm   6.1 km/h 57% 0.0 mm 14 W/m2
17:28 18.3 °C 10.2 °C 1015.1 hPa Calm   5.0 km/h 59% 0.0 mm 9 W/m2
17:33 17.8 °C 10.4 °C 1014.8 hPa Calm   2.6 km/h 62% 0.0 mm 6 W/m2
17:38 17.0 °C 10.4 °C 1015.1 hPa Calm   1.1 km/h 65% 0.0 mm 4 W/m2
17:43 16.4 °C 10.3 °C 1015.1 hPa West 1.1 km/h 2.6 km/h 67% 0.0 mm 1 W/m2
17:48 15.8 °C 11.0 °C 1015.5 hPa NNW 1.1 km/h 3.5 km/h 73% 0.0 mm 0 W/m2
17:53 15.5 °C 10.9 °C 1015.1 hPa Calm   3.5 km/h 74% 0.0 mm 0 W/m2
17:58 15.3 °C 10.7 °C 1015.5 hPa Calm   3.5 km/h 74% 0.0 mm 0 W/m2
18:03 15.1 °C 10.5 °C 1015.1 hPa Calm   1.1 km/h 74% 0.0 mm 0 W/m2
18:08 14.9 °C 10.5 °C 1015.1 hPa Calm   1.1 km/h 75% 0.0 mm 0 W/m2
18:13 14.6 °C 10.6 °C 1015.5 hPa Calm   1.1 km/h 77% 0.0 mm 0 W/m2
18:18 14.3 °C 10.5 °C 1015.1 hPa Calm   1.1 km/h 78% 0.0 mm 0 W/m2
18:23 14.0 °C 10.4 °C 1015.5 hPa Calm   2.6 km/h 79% 0.0 mm 0 W/m2
18:28 13.7 °C 10.3 °C 1015.1 hPa Calm   2.6 km/h 80% 0.0 mm 0 W/m2
18:33 13.6 °C 10.4 °C 1015.1 hPa Calm     81% 0.0 mm 0 W/m2
18:39 13.5 °C 10.7 °C 1015.1 hPa Calm     83% 0.0 mm 0 W/m2
18:44 13.4 °C 10.8 °C 1015.1 hPa Calm     84% 0.0 mm 0 W/m2
18:49 13.2 °C 10.6 °C 1015.1 hPa Calm     84% 0.0 mm 0 W/m2
18:54 12.9 °C 10.1 °C 1015.5 hPa Calm     83% 0.0 mm 0 W/m2
18:59 12.7 °C 10.1 °C 1015.5 hPa Calm     84% 0.0 mm 0 W/m2
19:04 12.8 °C 10.2 °C 1015.5 hPa Calm     84% 0.0 mm 0 W/m2
19:09 12.6 °C 10.3 °C 1015.5 hPa Calm     86% 0.0 mm 0 W/m2
19:14 12.4 °C 10.1 °C 1015.1 hPa Calm     86% 0.0 mm 0 W/m2
19:19 12.4 °C 10.3 °C 1015.1 hPa Calm     87% 0.0 mm 0 W/m2
19:24 12.2 °C 10.3 °C 1015.1 hPa Calm     88% 0.0 mm 0 W/m2
19:29 12.1 °C 10.2 °C 1015.1 hPa Calm     88% 0.0 mm 0 W/m2
19:34 12.0 °C 10.1 °C 1014.8 hPa Calm     88% 0.0 mm 0 W/m2
19:39 11.9 °C 10.3 °C 1014.8 hPa Calm     90% 0.0 mm 0 W/m2
19:44 11.9 °C 10.3 °C 1014.8 hPa Calm     90% 0.0 mm 0 W/m2
19:49 11.8 °C 10.2 °C 1014.8 hPa Calm     90% 0.0 mm 0 W/m2
19:54 11.8 °C 10.4 °C 1014.8 hPa Calm     91% 0.0 mm 0 W/m2
19:59 11.8 °C 10.4 °C 1014.8 hPa Calm     91% 0.0 mm 0 W/m2
20:04 11.7 °C 10.4 °C 1014.8 hPa Calm   1.1 km/h 92% 0.0 mm 0 W/m2
20:09 11.5 °C 10.2 °C 1014.8 hPa Calm   1.1 km/h 92% 0.0 mm 0 W/m2
20:14 11.3 °C 10.1 °C 1014.8 hPa Calm   1.1 km/h 92% 0.0 mm 0 W/m2
20:19 11.0 °C 9.8 °C 1014.8 hPa Calm     92% 0.0 mm 0 W/m2
20:24 11.0 °C 9.8 °C 1015.1 hPa Calm     92% 0.0 mm 0 W/m2
20:29 10.9 °C 10.0 °C 1015.1 hPa Calm     94% 0.0 mm 0 W/m2
20:34 10.9 °C 10.0 °C 1015.1 hPa Calm     94% 0.0 mm 0 W/m2
20:39 10.9 °C 10.1 °C 1015.1 hPa North 3.5 km/h 7.2 km/h 95% 0.0 mm 0 W/m2
20:44 10.8 °C 10.1 °C 1015.5 hPa North 3.5 km/h 7.2 km/h 95% 0.0 mm 0 W/m2
20:49 10.8 °C 10.1 °C 1015.5 hPa North 2.6 km/h 7.2 km/h 95% 0.0 mm 0 W/m2
20:54 10.7 °C 10.1 °C 1015.5 hPa North 2.6 km/h 7.2 km/h 96% 0.0 mm 0 W/m2
20:59 10.7 °C 10.1 °C 1015.8 hPa North 3.5 km/h 5.0 km/h 96% 0.0 mm 0 W/m2
21:04 10.7 °C 10.1 °C 1015.5 hPa NNW 3.5 km/h 6.1 km/h 96% 0.0 mm 0 W/m2
21:09 10.7 °C 10.2 °C 1015.5 hPa NNW 3.5 km/h 6.1 km/h 97% 0.0 mm 0 W/m2
21:14 10.7 °C 10.2 °C 1015.5 hPa NNW 5.0 km/h 7.2 km/h 97% 0.0 mm 0 W/m2
21:19 10.7 °C 10.2 °C 1015.5 hPa NW 5.0 km/h 7.2 km/h 97% 0.0 mm 0 W/m2
21:24 10.8 °C 10.3 °C 1015.8 hPa NW 3.5 km/h 7.2 km/h 97% 0.0 mm 0 W/m2
21:29 10.7 °C 10.1 °C 1015.8 hPa NW 5.0 km/h 7.2 km/h 96% 0.0 mm 0 W/m2
21:34 10.6 °C 10.0 °C 1015.8 hPa NW 5.0 km/h 7.2 km/h 96% 0.0 mm 0 W/m2
21:39 10.7 °C 10.1 °C 1015.8 hPa NNW 5.0 km/h 8.7 km/h 96% 0.0 mm 0 W/m2
21:44 10.7 °C 10.1 °C 1015.8 hPa NNW 5.0 km/h 8.7 km/h 96% 0.0 mm 0 W/m2
21:49 10.8 °C 10.2 °C 1015.8 hPa NW 6.1 km/h 8.7 km/h 96% 0.0 mm 0 W/m2
21:54 10.8 °C 10.1 °C 1015.8 hPa NW 5.0 km/h 9.7 km/h 95% 0.0 mm 0 W/m2
22:04 10.9 °C 10.0 °C 1015.8 hPa NNW 5.0 km/h 8.7 km/h 94% 0.0 mm 0 W/m2
22:09 10.9 °C 10.0 °C 1015.8 hPa NNW 7.2 km/h 9.7 km/h 94% 0.0 mm 0 W/m2
22:14 11.0 °C 9.9 °C 1015.8 hPa NW 8.7 km/h 9.7 km/h 93% 0.0 mm 0 W/m2
22:19 11.2 °C 10.1 °C 1015.8 hPa NNW 7.2 km/h 11.1 km/h 93% 0.0 mm 0 W/m2
22:24 11.3 °C 10.1 °C 1015.8 hPa NNW 5.0 km/h 11.1 km/h 92% 0.0 mm 0 W/m2
22:30 11.3 °C 10.1 °C 1015.8 hPa NNW 5.0 km/h 9.7 km/h 92% 0.0 mm 0 W/m2
22:35 11.2 °C 9.8 °C 1016.1 hPa NNW 3.5 km/h 8.7 km/h 91% 0.0 mm 0 W/m2
22:40 11.1 °C 9.7 °C 1016.1 hPa NNW 3.5 km/h 7.2 km/h 91% 0.0 mm 0 W/m2
22:45 11.1 °C 9.7 °C 1015.8 hPa NW 3.5 km/h 7.2 km/h 91% 0.0 mm 0 W/m2
22:50 10.9 °C 9.5 °C 1015.8 hPa NNW 6.1 km/h 8.7 km/h 91% 0.0 mm 0 W/m2
22:55 10.9 °C 9.7 °C 1015.8 hPa NNW 3.5 km/h 8.7 km/h 92% 0.0 mm 0 W/m2
23:00 10.9 °C 9.7 °C 1015.8 hPa NNW 3.5 km/h 8.7 km/h 92% 0.0 mm 0 W/m2
23:06 10.9 °C 9.7 °C 1015.8 hPa North 5.0 km/h 7.2 km/h 92% 0.0 mm 0 W/m2
23:11 10.9 °C 9.7 °C 1015.8 hPa North 6.1 km/h 8.7 km/h 92% 0.0 mm 0 W/m2
23:16 10.8 °C 9.6 °C 1015.8 hPa NNW 7.2 km/h 9.7 km/h 92% 0.0 mm 0 W/m2
23:21 10.5 °C 9.3 °C 1015.8 hPa NW 8.7 km/h 11.1 km/h 92% 0.0 mm 0 W/m2
23:26 10.5 °C 9.3 °C 1015.8 hPa NW 8.7 km/h 11.1 km/h 92% 0.0 mm 0 W/m2
23:31 10.4 °C 9.2 °C 1015.8 hPa NW 7.2 km/h 12.2 km/h 92% 0.0 mm 0 W/m2
23:36 10.4 °C 9.3 °C 1015.8 hPa NNW 5.0 km/h 12.2 km/h 93% 0.0 mm 0 W/m2
23:41 10.3 °C 9.2 °C 1015.8 hPa NW 3.5 km/h 9.7 km/h 93% 0.0 mm 0 W/m2
23:46 10.2 °C 9.1 °C 1015.8 hPa NW 5.0 km/h 7.2 km/h 93% 0.0 mm 0 W/m2
23:51 10.2 °C 9.1 °C 1015.8 hPa NW 2.6 km/h 7.2 km/h 93% 0.0 mm 0 W/m2
23:56 10.1 °C 9.0 °C 1015.8 hPa NW 5.0 km/h 7.2 km/h 93% 0.0 mm 0 W/m2
Northern Hawkes Bay. New Zealand Historic Data
Compliments of Weather Underground - 2.25 mb